Terminal Aerodrome Forecast
Issued by NWS

Current Version | Previous Version | Text Only | Print | Product List | Glossary On
Versions: 1 2 3 4 5 6 7 8 9 10 11 12 13
000
FTUS42 KILM 281725
TAFCRE
TAF
KCRE 281725Z 2818/2918 12010KT P6SM SCT030 SCT060 SCT160
     FM290400 06004KT P6SM FEW070 SCT150
     FM291300 09008KT P6SM SCT025 SCT070 SCT140=

USA.gov is the U.S. government's official web portal to all federal, state and local government web resources and services.